Time;durP1;ratioP1;P1;durP2;ratioP2;P2;SDS_P1;SDS_P2;PMS_P1;PMS_P2;Temp;Humidity;BMP_temperature;BMP_pressure;BME280_temperature;BME280_humidity;BME280_pressure;Samples;Min_cycle;Max_cycle;Signal;HPM_P1;HPM_P2
2022/12/09 00:01:22;;;;;;;30.98;13.93;;;0.10;99.90;;;;;;5028619;28;20025;-78
2022/12/09 00:03:49;;;;;;;27.88;12.80;;;0.00;99.90;;;;;;5045321;28;20098;-78
2022/12/09 00:06:20;;;;;;;24.45;13.93;;;0.00;99.90;;;;;;5031317;28;20089;-78
2022/12/09 00:08:47;;;;;;;23.60;12.75;;;-0.10;99.90;;;;;;5036558;28;20064;-78
2022/12/09 00:11:13;;;;;;;25.95;14.15;;;-0.10;99.90;;;;;;5036011;28;20029;-78
2022/12/09 00:13:39;;;;;;;28.50;12.82;;;-0.10;99.90;;;;;;5051000;28;20379;-78
2022/12/09 00:16:13;;;;;;;24.02;13.38;;;-0.10;99.90;;;;;;5016351;28;20063;-78
2022/12/09 00:18:39;;;;;;;22.05;12.30;;;-0.20;99.90;;;;;;5037264;28;20077;-78
2022/12/09 00:21:18;;;;;;;20.73;12.32;;;-0.20;99.90;;;;;;5053410;28;20128;-79
2022/12/09 00:23:44;;;;;;;22.15;12.90;;;-0.20;99.90;;;;;;5019899;28;20112;-78
2022/12/09 00:26:10;;;;;;;27.45;13.00;;;-0.20;99.90;;;;;;5038251;28;20497;-78
2022/12/09 00:28:37;;;;;;;24.27;13.18;;;-0.20;99.90;;;;;;5053402;28;20026;-78
2022/12/09 00:31:03;;;;;;;25.00;12.13;;;-0.30;99.90;;;;;;5050465;28;20036;-78
2022/12/09 00:33:31;;;;;;;21.02;11.55;;;-0.30;99.90;;;;;;5035904;28;20193;-79
2022/12/09 00:36:11;;;;;;;23.48;12.45;;;-0.40;99.90;;;;;;5038970;28;20106;-78
2022/12/09 00:38:37;;;;;;;29.67;13.32;;;-0.40;99.90;;;;;;5048468;28;20904;-78
2022/12/09 00:41:03;;;;;;;22.85;11.57;;;-0.50;99.90;;;;;;5021094;28;20045;-78
2022/12/09 00:43:30;;;;;;;23.95;12.30;;;-0.50;99.90;;;;;;5053173;28;20029;-78
2022/12/09 00:45:56;;;;;;;23.83;12.57;;;-0.50;99.90;;;;;;5038350;28;20105;-78
2022/12/09 00:48:22;;;;;;;20.83;12.15;;;-0.50;99.90;;;;;;5052520;28;20059;-78
2022/12/09 00:50:48;;;;;;;20.98;11.98;;;-0.60;99.90;;;;;;5061450;28;20033;-78
2022/12/09 00:53:13;;;;;;;23.60;12.50;;;-0.60;99.90;;;;;;5032403;28;20029;-78
2022/12/09 00:55:39;;;;;;;22.63;12.15;;;-0.70;99.90;;;;;;5030383;28;20032;-77
2022/12/09 00:58:05;;;;;;;21.85;12.30;;;-0.70;99.90;;;;;;5052419;28;20102;-78
2022/12/09 01:00:31;;;;;;;23.08;12.20;;;-0.70;99.90;;;;;;5033511;28;20065;-77
2022/12/09 01:02:57;;;;;;;20.80;11.77;;;-0.80;99.90;;;;;;5034027;28;20037;-77
2022/12/09 01:05:23;;;;;;;21.55;11.35;;;-0.80;99.90;;;;;;5051847;28;20033;-77
2022/12/09 01:07:49;;;;;;;17.08;10.82;;;-0.90;99.90;;;;;;5034076;28;20057;-77
2022/12/09 01:10:15;;;;;;;20.02;11.07;;;-0.90;99.90;;;;;;5017337;28;20063;-77
2022/12/09 01:12:41;;;;;;;24.67;11.77;;;-0.90;99.90;;;;;;5034227;28;20544;-78
2022/12/09 01:15:09;;;;;;;21.38;12.20;;;-0.90;99.90;;;;;;5053902;28;20029;-77
2022/12/09 01:17:36;;;;;;;26.33;12.23;;;-0.90;99.90;;;;;;5016167;28;20077;-78
2022/12/09 01:20:04;;;;;;;21.00;12.00;;;-1.00;99.90;;;;;;5033748;28;20075;-78
2022/12/09 01:22:30;;;;;;;24.00;11.88;;;-0.90;99.90;;;;;;5040869;28;20108;-77
2022/12/09 01:24:56;;;;;;;25.40;12.50;;;-1.00;99.90;;;;;;5017478;28;20082;-78
2022/12/09 01:27:22;;;;;;;21.75;11.98;;;-1.00;99.90;;;;;;5037306;28;20687;-78
2022/12/09 01:29:48;;;;;;;23.83;11.75;;;-1.00;99.90;;;;;;5052303;28;20043;-78
2022/12/09 01:32:13;;;;;;;21.45;11.68;;;-1.00;99.90;;;;;;5052300;28;20021;-77
2022/12/09 01:34:39;;;;;;;23.65;11.95;;;-1.00;99.90;;;;;;5068648;28;20033;-78
2022/12/09 01:37:05;;;;;;;22.40;11.52;;;-1.00;99.90;;;;;;5038985;28;20072;-78
2022/12/09 01:39:31;;;;;;;21.63;11.88;;;-1.00;99.90;;;;;;5034481;28;20040;-78
2022/12/09 01:41:56;;;;;;;25.45;12.05;;;-1.10;99.90;;;;;;5049791;28;20072;-78
2022/12/09 01:44:23;;;;;;;23.42;11.45;;;-1.10;99.90;;;;;;5034759;28;20494;-78
2022/12/09 01:46:55;;;;;;;22.73;11.90;;;-1.10;99.90;;;;;;5034495;28;20029;-78
2022/12/09 01:49:41;;;;;;;25.15;12.40;;;-1.20;99.90;;;;;;5048899;28;20049;-77
2022/12/09 01:52:14;;;;;;;19.38;11.25;;;-1.20;99.90;;;;;;5044414;28;20044;-78
2022/12/09 01:54:43;;;;;;;23.48;10.85;;;-1.20;99.90;;;;;;5032561;28;20033;-78
2022/12/09 01:57:10;;;;;;;23.55;11.75;;;-1.30;99.90;;;;;;5019845;28;20044;-79
2022/12/09 01:59:36;;;;;;;22.02;12.10;;;-1.30;99.90;;;;;;5030390;28;20029;-78
2022/12/09 02:02:04;;;;;;;22.02;12.02;;;-1.30;99.90;;;;;;5035252;28;20025;-78
2022/12/09 02:04:37;;;;;;;22.95;11.73;;;-1.30;99.90;;;;;;5051310;28;20029;-78
2022/12/09 02:07:07;;;;;;;22.20;11.98;;;-1.30;99.90;;;;;;5048964;28;20673;-78
2022/12/09 02:09:33;;;;;;;21.25;11.68;;;-1.30;99.90;;;;;;5033286;28;20037;-78
2022/12/09 02:12:07;;;;;;;23.73;12.48;;;-1.30;99.90;;;;;;5022454;28;20037;-78
2022/12/09 02:14:52;;;;;;;28.30;13.75;;;-1.30;99.90;;;;;;5051365;28;20074;-78
2022/12/09 02:17:42;;;;;;;23.57;11.50;;;-1.40;99.90;;;;;;5047195;28;20091;-78
2022/12/09 02:20:39;;;;;;;25.95;12.02;;;-1.30;99.90;;;;;;5032928;28;20021;-78
2022/12/09 02:23:17;;;;;;;25.58;14.40;;;-1.40;99.90;;;;;;5015398;28;20037;-78
2022/12/09 02:25:47;;;;;;;22.00;11.77;;;-1.50;99.90;;;;;;5030863;28;20028;-78
2022/12/09 02:28:38;;;;;;;21.67;11.90;;;-1.60;99.90;;;;;;5032431;28;20092;-78
2022/12/09 02:31:25;;;;;;;22.02;11.95;;;-1.70;99.90;;;;;;5032286;28;20518;-78
2022/12/09 02:34:25;;;;;;;20.27;10.93;;;-1.70;99.90;;;;;;5052280;28;20025;-78
2022/12/09 02:37:07;;;;;;;;;;;-1.70;99.90;;;;;;5047162;28;20021;-78
2022/12/09 02:39:52;;;;;;;21.20;11.25;;;-1.60;99.90;;;;;;5036265;28;20633;-78
2022/12/09 02:42:22;;;;;;;21.08;10.02;;;-1.70;99.90;;;;;;5032256;28;20039;-78
2022/12/09 02:44:50;;;;;;;19.80;10.63;;;-1.70;99.90;;;;;;5018593;28;20036;-78
2022/12/09 02:47:22;;;;;;;18.30;10.57;;;-1.70;99.90;;;;;;5048696;28;20035;-78
2022/12/09 02:49:54;;;;;;;23.90;12.23;;;-1.70;99.90;;;;;;5052454;28;20064;-78
2022/12/09 02:52:21;;;;;;;22.65;11.30;;;-1.70;99.90;;;;;;5036084;28;20148;-78
2022/12/09 02:54:49;;;;;;;24.15;12.40;;;-1.70;99.90;;;;;;5032825;28;20501;-78
2022/12/09 02:57:24;;;;;;;20.67;10.23;;;-1.70;99.90;;;;;;5019601;28;20673;-78
2022/12/09 02:59:50;;;;;;;22.15;11.40;;;-1.60;99.90;;;;;;5035919;28;20037;-78
2022/12/09 03:02:24;;;;;;;22.00;10.30;;;-1.70;99.90;;;;;;5053429;28;20040;-78
2022/12/09 03:05:18;;;;;;;21.35;11.50;;;-1.70;99.90;;;;;;5033277;28;20061;-78
2022/12/09 03:07:51;;;;;;;21.65;10.73;;;-1.70;99.90;;;;;;5032601;28;20029;-78
2022/12/09 03:10:42;;;;;;;20.15;11.10;;;-1.70;99.90;;;;;;5033156;28;20044;-78
2022/12/09 03:13:17;;;;;;;16.77;9.63;;;-1.70;99.90;;;;;;5042790;28;20040;-78
2022/12/09 03:16:00;;;;;;;20.38;10.75;;;-1.70;99.90;;;;;;5052782;28;20485;-78
2022/12/09 03:18:28;;;;;;;19.00;10.50;;;-1.70;99.90;;;;;;5052692;28;20096;-78
2022/12/09 03:20:54;;;;;;;19.98;10.80;;;-1.70;99.90;;;;;;5039559;28;20025;-78
2022/12/09 03:23:25;;;;;;;19.25;11.05;;;-1.70;99.90;;;;;;5052804;28;20564;-78
2022/12/09 03:25:53;;;;;;;21.33;10.50;;;-1.80;99.90;;;;;;5036506;28;20131;-78
2022/12/09 03:28:24;;;;;;;20.40;10.52;;;-1.80;99.90;;;;;;5035743;28;20673;-78
2022/12/09 03:30:52;;;;;;;18.50;9.80;;;-1.80;99.90;;;;;;5052521;28;20033;-77
2022/12/09 03:33:20;;;;;;;19.73;10.48;;;-1.90;99.90;;;;;;5052739;28;20695;-78
2022/12/09 03:35:54;;;;;;;18.08;10.18;;;-1.90;99.90;;;;;;5052251;28;20023;-77
2022/12/09 03:38:21;;;;;;;19.25;10.25;;;-1.90;99.90;;;;;;5039762;28;20028;-78
2022/12/09 03:40:52;;;;;;;23.58;10.52;;;-1.90;99.90;;;;;;5019503;28;20036;-78
2022/12/09 03:43:23;;;;;;;21.52;10.50;;;-1.90;99.90;;;;;;5049038;28;20029;-78
2022/12/09 03:45:53;;;;;;;18.10;10.10;;;-2.00;99.90;;;;;;5036563;28;20545;-78
2022/12/09 03:48:20;;;;;;;16.73;9.40;;;-2.00;99.90;;;;;;5019044;28;20374;-78
2022/12/09 03:50:55;;;;;;;17.25;8.20;;;-2.00;99.90;;;;;;5036208;28;20029;-77
2022/12/09 03:53:47;;;;;;;15.38;8.90;;;-2.00;99.90;;;;;;5052335;28;20037;-78
2022/12/09 03:56:26;;;;;;;15.27;8.43;;;-2.10;99.90;;;;;;5025450;28;20056;-77
2022/12/09 03:58:54;;;;;;;16.08;8.43;;;-2.10;99.90;;;;;;5035310;28;20120;-78
2022/12/09 04:01:25;;;;;;;12.75;7.88;;;-2.10;99.90;;;;;;5018707;28;20681;-77
2022/12/09 04:03:53;;;;;;;13.68;7.97;;;-2.20;99.90;;;;;;5034571;28;20037;-78
2022/12/09 04:06:19;;;;;;;16.42;9.13;;;-2.20;99.90;;;;;;5052202;28;20059;-77
2022/12/09 04:08:45;;;;;;;19.05;9.68;;;-2.20;99.90;;;;;;5046851;28;20041;-78
2022/12/09 04:11:11;;;;;;;17.55;9.00;;;-2.30;99.90;;;;;;5046307;28;20029;-77
2022/12/09 04:13:36;;;;;;;20.58;10.43;;;-2.30;99.90;;;;;;5031546;28;20030;-79
2022/12/09 04:16:03;;;;;;;17.30;9.48;;;-2.30;99.90;;;;;;5026306;28;20044;-77
2022/12/09 04:18:29;;;;;;;20.80;10.38;;;-2.30;99.90;;;;;;5053707;28;20553;-78
2022/12/09 04:20:55;;;;;;;20.52;10.60;;;-2.30;99.90;;;;;;5052638;28;20059;-78
2022/12/09 04:23:20;;;;;;;19.48;10.55;;;-2.30;99.90;;;;;;5052936;28;20036;-78
2022/12/09 04:25:46;;;;;;;17.25;9.93;;;-2.30;99.90;;;;;;5052111;28;20044;-78
2022/12/09 04:28:12;;;;;;;20.00;10.40;;;-2.30;99.90;;;;;;5051633;28;20521;-78
2022/12/09 04:30:43;;;;;;;21.33;10.23;;;-2.40;99.90;;;;;;5044332;28;20110;-77
2022/12/09 04:33:09;;;;;;;20.40;10.32;;;-2.30;99.90;;;;;;5059694;28;20051;-78
2022/12/09 04:35:34;;;;;;;21.02;11.27;;;-2.40;99.90;;;;;;5014519;28;20521;-78
2022/12/09 04:38:00;;;;;;;23.55;10.57;;;-2.40;99.90;;;;;;5018973;28;20029;-78
2022/12/09 04:40:26;;;;;;;21.80;11.32;;;-2.40;99.90;;;;;;5033239;28;20109;-78
2022/12/09 04:42:52;;;;;;;19.00;10.52;;;-2.40;99.90;;;;;;5039137;28;20037;-77
2022/12/09 04:45:17;;;;;;;23.38;11.68;;;-2.40;99.90;;;;;;5016572;28;20103;-77
2022/12/09 04:47:43;;;;;;;23.63;10.23;;;-2.40;99.90;;;;;;5052697;28;20024;-78
2022/12/09 04:50:10;;;;;;;21.27;10.32;;;-2.40;99.90;;;;;;5032817;28;20063;-78
2022/12/09 04:52:35;;;;;;;25.33;11.45;;;-2.40;99.90;;;;;;5052131;28;20086;-77
2022/12/09 04:55:01;;;;;;;25.27;11.23;;;-2.40;99.90;;;;;;5017371;28;20029;-78
2022/12/09 04:57:28;;;;;;;29.50;11.80;;;-2.40;99.90;;;;;;5034131;28;20037;-78
2022/12/09 04:59:54;;;;;;;22.40;10.52;;;-2.40;99.90;;;;;;5018595;28;20040;-77
2022/12/09 05:02:20;;;;;;;27.67;11.85;;;-2.40;99.90;;;;;;5052285;28;20501;-77
2022/12/09 05:04:46;;;;;;;27.52;10.75;;;-2.50;99.90;;;;;;5017860;28;20117;-77
2022/12/09 05:07:12;;;;;;;23.40;10.00;;;-2.50;99.90;;;;;;5041974;28;20507;-77
2022/12/09 05:09:38;;;;;;;23.98;10.60;;;-2.50;99.90;;;;;;5052394;28;20477;-79
2022/12/09 05:12:04;;;;;;;22.13;9.25;;;-2.50;99.90;;;;;;5051124;28;20078;-79
2022/12/09 05:14:30;;;;;;;19.85;9.27;;;-2.40;99.90;;;;;;5046146;28;20052;-79
2022/12/09 05:16:56;;;;;;;21.70;9.45;;;-2.50;99.90;;;;;;5033818;28;20051;-77
2022/12/09 05:19:23;;;;;;;21.58;10.27;;;-2.40;99.90;;;;;;5032552;28;20036;-78
2022/12/09 05:21:48;;;;;;;28.42;10.32;;;-2.40;99.90;;;;;;5032696;28;20037;-77
2022/12/09 05:24:14;;;;;;;38.53;12.27;;;-2.30;99.90;;;;;;5030840;28;20116;-78
2022/12/09 05:26:40;;;;;;;24.67;11.63;;;-2.30;99.90;;;;;;5035551;28;20521;-78
2022/12/09 05:29:06;;;;;;;20.90;10.55;;;-2.30;99.90;;;;;;5029839;28;20034;-80
2022/12/09 05:31:32;;;;;;;21.08;10.95;;;-2.20;99.90;;;;;;5029447;28;20022;-78
2022/12/09 05:33:58;;;;;;;19.17;10.30;;;-2.20;99.90;;;;;;5033823;28;20539;-78
2022/12/09 05:36:26;;;;;;;22.92;12.10;;;-2.10;99.90;;;;;;5045979;28;20493;-78
2022/12/09 05:38:53;;;;;;;26.00;12.48;;;-2.10;99.90;;;;;;5029752;28;20025;-78
2022/12/09 05:41:19;;;;;;;25.77;12.50;;;-2.00;99.90;;;;;;5014341;28;20037;-79
2022/12/09 05:43:45;;;;;;;21.65;11.63;;;-2.00;99.90;;;;;;5041693;28;20025;-80
2022/12/09 05:46:13;;;;;;;25.40;12.45;;;-1.90;99.90;;;;;;5028328;28;20063;-78
2022/12/09 05:48:38;;;;;;;23.73;12.23;;;-1.90;99.90;;;;;;5029581;28;20037;-78
2022/12/09 05:51:13;;;;;;;24.80;12.02;;;-1.80;99.90;;;;;;5017078;28;20036;-79
2022/12/09 05:53:38;;;;;;;20.45;10.85;;;-1.80;99.90;;;;;;5050235;28;20035;-79
2022/12/09 05:56:04;;;;;;;21.45;10.93;;;-1.70;99.90;;;;;;5021490;28;20036;-79
2022/12/09 05:58:30;;;;;;;17.10;9.65;;;-1.70;99.90;;;;;;5047576;28;20021;-79
2022/12/09 06:01:03;;;;;;;20.00;9.52;;;-1.70;99.90;;;;;;5000316;28;20137;-79
2022/12/09 06:03:29;;;;;;;19.45;9.88;;;-1.60;99.90;;;;;;5043671;28;20022;-80
2022/12/09 06:05:54;;;;;;;18.25;9.82;;;-1.60;99.90;;;;;;5032596;28;20029;-80
2022/12/09 06:08:20;;;;;;;19.17;9.32;;;-1.50;99.90;;;;;;5047074;28;20037;-80
2022/12/09 06:10:46;;;;;;;15.48;9.13;;;-1.60;99.90;;;;;;5032275;28;20057;-80
2022/12/09 06:13:11;;;;;;;20.27;10.10;;;-1.50;99.90;;;;;;5038087;28;20514;-79
2022/12/09 06:15:37;;;;;;;17.02;9.35;;;-1.50;99.90;;;;;;5032369;28;20120;-79
2022/12/09 06:18:03;;;;;;;18.85;10.05;;;-1.50;99.90;;;;;;5041170;28;20033;-79
2022/12/09 06:20:29;;;;;;;19.85;9.50;;;-1.50;99.90;;;;;;5016065;28;20660;-79
2022/12/09 06:22:55;;;;;;;23.15;9.95;;;-1.50;99.90;;;;;;5007793;28;20037;-79
2022/12/09 06:25:21;;;;;;;18.58;9.82;;;-1.50;99.90;;;;;;5016329;28;20029;-80
2022/12/09 06:27:46;;;;;;;23.67;11.20;;;-1.50;99.90;;;;;;5046319;28;20037;-79
2022/12/09 06:30:12;;;;;;;21.23;11.00;;;-1.40;99.90;;;;;;5014642;28;20037;-79
2022/12/09 06:32:38;;;;;;;20.67;10.40;;;-1.40;99.90;;;;;;5046855;28;20039;-79
2022/12/09 06:35:06;;;;;;;20.23;9.98;;;-1.50;99.90;;;;;;5029309;28;20036;-80
2022/12/09 06:37:32;;;;;;;18.98;9.57;;;-1.40;99.90;;;;;;5032533;28;20048;-80
2022/12/09 06:39:58;;;;;;;22.15;10.13;;;-1.40;99.90;;;;;;5024822;28;20044;-79
2022/12/09 06:42:23;;;;;;;17.33;9.65;;;-1.50;99.90;;;;;;5032071;28;20041;-79
2022/12/09 06:44:49;;;;;;;16.60;9.23;;;-1.40;99.90;;;;;;5010581;28;20029;-80
2022/12/09 06:47:15;;;;;;;18.45;10.40;;;-1.40;99.90;;;;;;5045035;28;20102;-79
2022/12/09 06:49:41;;;;;;;20.23;10.15;;;-1.40;99.90;;;;;;5031931;28;20094;-79
2022/12/09 06:52:06;;;;;;;20.40;10.05;;;-1.40;99.90;;;;;;5025651;28;20102;-79
2022/12/09 06:54:32;;;;;;;21.10;10.98;;;-1.40;99.90;;;;;;5031537;28;20040;-79
2022/12/09 06:56:58;;;;;;;22.77;10.68;;;-1.40;99.90;;;;;;5050288;28;20098;-79
2022/12/09 06:59:24;;;;;;;27.60;12.18;;;-1.50;99.90;;;;;;5014500;28;20521;-80
2022/12/09 07:01:49;;;;;;;25.85;12.40;;;-1.50;99.90;;;;;;5015061;28;20067;-79
2022/12/09 07:04:15;;;;;;;22.35;11.88;;;-1.40;99.90;;;;;;5049320;28;20709;-79
2022/12/09 07:06:43;;;;;;;22.85;10.73;;;-1.50;99.90;;;;;;5034196;28;20067;-79
2022/12/09 07:09:15;;;;;;;18.77;10.73;;;-1.50;99.90;;;;;;5021180;28;20052;-79
2022/12/09 07:11:41;;;;;;;19.05;10.68;;;-1.50;99.90;;;;;;5050918;28;20048;-79
2022/12/09 07:14:08;;;;;;;21.98;11.00;;;-1.40;99.90;;;;;;5042535;28;20520;-80
2022/12/09 07:16:34;;;;;;;19.38;10.20;;;-1.40;99.90;;;;;;5054913;28;20117;-79
2022/12/09 07:19:01;;;;;;;19.90;10.10;;;-1.40;99.90;;;;;;5032444;28;20032;-80
2022/12/09 07:21:27;;;;;;;23.00;11.38;;;-1.40;99.90;;;;;;5037096;28;20029;-79
2022/12/09 07:23:54;;;;;;;25.10;11.40;;;-1.40;99.90;;;;;;5023394;28;20484;-80
2022/12/09 07:26:20;;;;;;;21.05;10.73;;;-1.40;99.90;;;;;;5033916;28;20049;-78
2022/12/09 07:28:48;;;;;;;22.50;11.15;;;-1.40;99.90;;;;;;5033753;28;20025;-78
2022/12/09 07:31:17;;;;;;;19.30;10.18;;;-1.40;99.90;;;;;;5050964;28;20421;-77
2022/12/09 07:33:43;;;;;;;24.27;11.65;;;-1.40;99.90;;;;;;5037619;28;20018;-78
2022/12/09 07:36:09;;;;;;;22.30;11.73;;;-1.30;99.90;;;;;;5039571;28;20047;-78
2022/12/09 07:38:34;;;;;;;21.38;11.32;;;-1.30;99.90;;;;;;5033811;28;20041;-78
2022/12/09 07:41:08;;;;;;;23.92;11.27;;;-1.30;99.90;;;;;;5018008;28;20037;-78
2022/12/09 07:43:37;;;;;;;23.52;11.38;;;-1.30;99.90;;;;;;5035821;28;20025;-78
2022/12/09 07:46:07;;;;;;;25.00;11.18;;;-1.30;99.90;;;;;;5036090;28;20069;-78
2022/12/09 07:48:33;;;;;;;18.83;10.18;;;-1.30;99.90;;;;;;5000226;28;20025;-78
2022/12/09 07:51:03;;;;;;;21.15;11.18;;;-1.20;99.90;;;;;;5041738;28;20029;-78
2022/12/09 07:53:29;;;;;;;22.88;11.07;;;-1.20;99.90;;;;;;5003109;28;20033;-78
2022/12/09 07:55:59;;;;;;;22.35;11.02;;;-1.20;99.90;;;;;;5019690;28;20721;-78
2022/12/09 07:58:25;;;;;;;20.17;10.43;;;-1.10;99.90;;;;;;5026267;28;20029;-78
2022/12/09 08:00:50;;;;;;;20.20;11.40;;;-1.10;99.90;;;;;;5017405;28;20797;-78
2022/12/09 08:03:16;;;;;;;19.45;10.85;;;-1.10;99.90;;;;;;5041545;28;20035;-77
2022/12/09 08:05:50;;;;;;;21.55;11.00;;;-1.10;99.90;;;;;;5044272;28;20036;-78
2022/12/09 08:08:16;;;;;;;22.00;11.77;;;-1.00;99.90;;;;;;5048955;28;20033;-78
2022/12/09 08:10:43;;;;;;;18.70;10.75;;;-1.00;99.90;;;;;;5047725;28;20091;-77
2022/12/09 08:13:09;;;;;;;22.88;11.73;;;-0.90;99.90;;;;;;5052407;28;20029;-78
2022/12/09 08:15:35;;;;;;;21.48;11.18;;;-0.90;99.90;;;;;;5027099;28;20029;-78
2022/12/09 08:18:01;;;;;;;24.08;12.07;;;-0.90;99.90;;;;;;5020577;28;20037;-79
2022/12/09 08:20:28;;;;;;;21.92;10.88;;;-0.80;99.90;;;;;;5045303;28;20032;-78
2022/12/09 08:22:53;;;;;;;21.13;10.93;;;-0.80;99.90;;;;;;5045403;28;20025;-79
2022/12/09 08:25:19;;;;;;;20.10;10.95;;;-0.80;99.90;;;;;;5029675;28;20032;-78
2022/12/09 08:27:45;;;;;;;23.58;13.13;;;-0.70;99.90;;;;;;5048093;28;20131;-78
2022/12/09 08:30:11;;;;;;;35.15;18.48;;;-0.60;99.90;;;;;;5019866;28;20271;-78
2022/12/09 08:32:37;;;;;;;34.00;19.13;;;-0.60;99.90;;;;;;5022732;28;20029;-78
2022/12/09 08:35:03;;;;;;;31.05;16.42;;;-0.60;99.90;;;;;;5011666;28;20253;-79
2022/12/09 08:37:28;;;;;;;32.42;17.17;;;-0.50;99.90;;;;;;5012741;28;20040;-77
2022/12/09 08:39:54;;;;;;;29.40;16.90;;;-0.50;99.90;;;;;;5029547;28;20580;-78
2022/12/09 08:42:20;;;;;;;29.40;15.80;;;-0.50;99.90;;;;;;5014406;28;20612;-77
2022/12/09 08:44:45;;;;;;;27.02;13.65;;;-0.40;99.90;;;;;;5035435;28;20087;-77
2022/12/09 08:47:11;;;;;;;26.35;12.18;;;-0.30;99.90;;;;;;5006687;28;20039;-77
2022/12/09 08:49:37;;;;;;;26.55;13.93;;;-0.20;99.90;;;;;;5021730;28;20465;-77
2022/12/09 08:52:03;;;;;;;20.83;11.18;;;-0.20;99.90;;;;;;5022967;28;20037;-77
2022/12/09 08:54:29;;;;;;;23.27;11.70;;;-0.20;99.90;;;;;;5028584;28;20029;-78
2022/12/09 08:56:55;;;;;;;23.45;12.63;;;-0.20;99.90;;;;;;5039216;28;20091;-78
2022/12/09 08:59:27;;;;;;;23.35;12.77;;;-0.10;99.90;;;;;;5019874;28;20084;-77
2022/12/09 09:01:52;;;;;;;24.45;13.02;;;-0.10;99.90;;;;;;5025127;28;20034;-78
2022/12/09 09:04:19;;;;;;;21.27;12.18;;;-0.10;99.90;;;;;;5025036;28;20037;-77
2022/12/09 09:06:48;;;;;;;26.50;12.90;;;-0.10;99.90;;;;;;5019062;28;20095;-77
2022/12/09 09:09:14;;;;;;;26.38;13.75;;;-0.10;99.90;;;;;;5046279;28;20032;-78
2022/12/09 09:11:41;;;;;;;25.23;13.80;;;-0.10;99.90;;;;;;5042864;28;20033;-78
2022/12/09 09:14:09;;;;;;;29.17;15.07;;;-0.10;99.90;;;;;;5040705;28;20039;-79
2022/12/09 09:16:38;;;;;;;24.95;14.80;;;0.00;99.90;;;;;;5024771;28;20057;-78
2022/12/09 09:19:04;;;;;;;28.33;14.00;;;0.00;99.90;;;;;;5011591;28;20029;-77
2022/12/09 09:21:31;;;;;;;22.65;11.80;;;0.00;99.90;;;;;;5045414;28;20468;-77
2022/12/09 09:23:57;;;;;;;24.08;12.70;;;0.00;99.90;;;;;;5041798;28;20061;-78
2022/12/09 09:26:26;;;;;;;22.48;12.20;;;0.10;99.90;;;;;;5027288;28;20029;-79
2022/12/09 09:28:54;;;;;;;23.33;11.40;;;0.10;99.90;;;;;;5026722;28;20056;-77
2022/12/09 09:31:22;;;;;;;22.13;11.57;;;0.10;99.90;;;;;;5017858;28;20617;-78
2022/12/09 09:33:49;;;;;;;21.08;11.48;;;0.10;99.90;;;;;;5013281;28;20669;-77
2022/12/09 09:36:19;;;;;;;22.27;11.65;;;0.20;99.90;;;;;;5043653;28;20524;-78
2022/12/09 09:38:46;;;;;;;22.55;11.68;;;0.30;99.90;;;;;;5038519;28;20033;-78
2022/12/09 09:41:22;;;;;;;22.90;11.07;;;0.40;99.90;;;;;;5038410;28;20702;-80
2022/12/09 09:43:48;;;;;;;22.35;12.60;;;0.40;99.90;;;;;;5045560;28;20052;-80
2022/12/09 09:46:19;;;;;;;21.25;11.07;;;0.40;99.90;;;;;;5032610;28;20690;-80
2022/12/09 09:48:46;;;;;;;19.40;10.10;;;0.40;99.90;;;;;;5024825;28;20100;-80
2022/12/09 09:51:18;;;;;;;25.13;11.13;;;0.50;99.90;;;;;;5012409;28;20025;-81
2022/12/09 09:53:48;;;;;;;22.95;11.75;;;0.50;99.90;;;;;;5044608;28;20025;-80
2022/12/09 09:56:27;;;;;;;23.70;13.20;;;0.60;99.90;;;;;;5042539;28;20028;-80
2022/12/09 09:59:10;;;;;;;22.90;12.35;;;0.70;99.90;;;;;;5027307;28;20029;-80
2022/12/09 10:01:36;;;;;;;22.27;11.45;;;0.80;99.90;;;;;;5031546;28;20063;-80
2022/12/09 10:04:24;;;;;;;24.95;13.23;;;0.80;99.90;;;;;;5047406;28;20043;-80
2022/12/09 10:07:04;;;;;;;20.48;11.68;;;0.80;99.90;;;;;;5042600;28;20090;-80
2022/12/09 10:09:37;;;;;;;24.17;12.55;;;0.80;99.90;;;;;;5039208;28;20060;-80
2022/12/09 10:12:19;;;;;;;22.23;11.20;;;0.80;99.90;;;;;;5036058;28;20086;-80
2022/12/09 10:14:56;;;;;;;24.17;11.38;;;0.80;99.90;;;;;;5047571;28;20394;-79
2022/12/09 10:17:33;;;;;;;21.70;12.07;;;0.90;99.90;;;;;;5030162;28;20528;-79
2022/12/09 10:20:14;;;;;;;23.65;12.63;;;0.80;99.90;;;;;;5047108;28;20120;-79
2022/12/09 10:22:46;;;;;;;19.88;11.48;;;0.80;99.90;;;;;;5035909;28;20612;-80
2022/12/09 10:25:23;;;;;;;22.08;12.13;;;0.80;99.90;;;;;;5032268;28;20043;-80
2022/12/09 10:27:58;;;;;;;24.48;11.88;;;0.80;99.90;;;;;;5035289;28;20035;-80
2022/12/09 10:30:24;;;;;;;22.40;11.25;;;0.80;99.90;;;;;;5028158;28;20025;-80
2022/12/09 10:32:51;;;;;;;21.40;12.25;;;0.90;99.90;;;;;;5029854;28;20537;-80
2022/12/09 10:35:21;;;;;;;17.50;10.07;;;0.90;99.90;;;;;;5036483;28;20021;-80
2022/12/09 10:37:50;;;;;;;17.80;10.10;;;0.90;99.90;;;;;;5052651;28;20037;-79
2022/12/09 10:40:25;;;;;;;19.40;9.98;;;1.00;99.90;;;;;;5048808;28;20166;-80
2022/12/09 10:45:54;;;;;;;15.43;9.38;;;1.00;99.90;;;;;;5038598;28;20029;-80
2022/12/09 10:48:36;;;;;;;18.92;9.68;;;1.00;99.90;;;;;;5028435;28;20121;-80
2022/12/09 10:51:24;;;;;;;16.33;9.82;;;1.00;99.90;;;;;;5040312;28;20065;-80
2022/12/09 10:54:05;;;;;;;19.73;10.57;;;1.00;99.90;;;;;;5042914;28;20041;-79
2022/12/09 10:56:37;;;;;;;19.65;10.85;;;1.00;99.90;;;;;;5041254;28;20020;-79
2022/12/09 10:59:23;;;;;;;27.25;13.70;;;1.00;99.90;;;;;;5039724;28;20081;-80
2022/12/09 11:01:59;;;;;;;28.20;13.90;;;1.00;99.90;;;;;;5019002;28;20072;-80
2022/12/09 11:04:29;;;;;;;27.52;13.30;;;1.00;99.90;;;;;;5031071;28;20081;-80
2022/12/09 11:07:15;;;;;;;21.45;11.52;;;0.90;99.90;;;;;;5056907;28;20033;-80
2022/12/09 11:09:55;;;;;;;19.90;11.00;;;0.90;99.90;;;;;;5036583;28;20082;-79
2022/12/09 11:12:27;;;;;;;21.02;10.88;;;0.90;99.90;;;;;;5055823;28;20085;-80
2022/12/09 11:14:57;;;;;;;17.83;10.07;;;0.90;99.90;;;;;;5042585;28;20065;-80
2022/12/09 11:17:29;;;;;;;20.33;10.63;;;0.80;99.90;;;;;;5019279;28;20056;-80
2022/12/09 11:20:19;;;;;;;26.85;14.25;;;0.90;99.90;;;;;;5034219;28;20094;-80
2022/12/09 11:23:12;;;;;;;24.77;12.20;;;0.90;99.90;;;;;;5045513;28;20588;-80
2022/12/09 11:25:53;;;;;;;19.13;10.25;;;1.00;99.90;;;;;;5053830;28;20076;-80
2022/12/09 11:28:29;;;;;;;17.98;10.30;;;1.00;99.90;;;;;;5031660;28;20033;-80
2022/12/09 11:31:01;;;;;;;18.83;10.38;;;1.00;99.90;;;;;;5037140;28;20537;-80
2022/12/09 11:33:39;;;;;;;17.27;10.00;;;1.00;99.90;;;;;;5036563;28;20125;-80
2022/12/09 11:36:25;;;;;;;18.10;10.23;;;1.00;99.90;;;;;;5030984;28;20033;-80
2022/12/09 11:39:05;;;;;;;20.80;11.18;;;1.00;99.90;;;;;;5037767;28;20025;-80
2022/12/09 11:44:25;;;;;;;17.97;9.80;;;1.10;99.90;;;;;;5034314;28;20057;-80
2022/12/09 11:47:26;;;;;;;19.42;10.48;;;1.10;99.90;;;;;;5035551;28;20044;-80
2022/12/09 11:50:15;;;;;;;19.77;10.93;;;1.20;99.90;;;;;;5035275;28;20140;-80
2022/12/09 11:52:41;;;;;;;22.50;12.60;;;1.20;99.90;;;;;;5049091;28;20029;-80
2022/12/09 11:55:23;;;;;;;21.13;11.93;;;1.20;99.90;;;;;;5018158;28;20022;-80
2022/12/09 11:57:57;;;;;;;21.33;13.13;;;1.20;99.90;;;;;;5025298;28;20036;-80
2022/12/09 12:00:24;;;;;;;24.45;13.95;;;1.30;99.90;;;;;;5035462;28;20587;-80
2022/12/09 12:03:11;;;;;;;25.52;14.38;;;1.30;99.90;;;;;;5017458;28;20045;-80
2022/12/09 12:05:41;;;;;;;20.85;12.27;;;1.30;99.90;;;;;;5052686;28;20072;-80
2022/12/09 12:08:34;;;;;;;22.75;12.30;;;1.20;99.90;;;;;;5023459;28;20079;-80
2022/12/09 12:11:06;;;;;;;23.13;14.15;;;1.30;99.90;;;;;;5035704;28;20481;-80
2022/12/09 12:13:51;;;;;;;40.95;23.90;;;1.30;99.90;;;;;;5034141;28;20025;-81
2022/12/09 12:16:45;;;;;;;34.47;19.83;;;1.30;99.90;;;;;;5017747;28;20025;-80
2022/12/09 12:19:20;;;;;;;37.90;21.17;;;1.30;99.90;;;;;;5048053;28;20029;-80
2022/12/09 12:21:53;;;;;;;53.75;31.10;;;1.30;99.90;;;;;;5047122;28;20032;-79
2022/12/09 12:24:39;;;;;;;30.70;17.83;;;1.30;99.90;;;;;;5032312;28;20784;-79
2022/12/09 12:27:08;;;;;;;23.73;13.85;;;1.30;99.90;;;;;;5045966;28;20036;-79
2022/12/09 12:29:47;;;;;;;26.67;15.30;;;1.30;99.90;;;;;;5051138;28;20029;-78
2022/12/09 12:32:36;;;;;;;29.40;16.23;;;1.30;99.90;;;;;;5051890;28;20401;-79
2022/12/09 12:35:19;;;;;;;26.10;14.90;;;1.30;99.90;;;;;;5025504;28;20044;-79
2022/12/09 12:38:09;;;;;;;26.45;16.15;;;1.30;99.90;;;;;;5027882;28;20031;-78
2022/12/09 12:40:46;;;;;;;23.27;13.63;;;1.30;99.90;;;;;;5033101;28;20025;-78
2022/12/09 12:46:31;;;;;;;18.35;11.95;;;1.30;99.90;;;;;;5018505;28;20030;-79
2022/12/09 12:49:15;;;;;;;19.83;11.10;;;1.30;99.90;;;;;;5049838;28;20029;-78
2022/12/09 12:52:05;;;;;;;20.20;10.80;;;1.30;99.90;;;;;;5017368;28;20032;-79
2022/12/09 12:55:06;;;;;;;17.67;10.65;;;1.30;99.90;;;;;;5046510;28;20025;-79
2022/12/09 12:58:07;;;;;;;20.73;10.38;;;1.20;99.90;;;;;;5004658;28;20041;-78